Time;durP1;ratioP1;P1;durP2;ratioP2;P2;SDS_P1;SDS_P2;PMS_P1;PMS_P2;Temp;Humidity;BMP_temperature;BMP_pressure;BME280_temperature;BME280_humidity;BME280_pressure;Samples;Min_cycle;Max_cycle;Signal;HPM_P1;HPM_P2
2024/03/19 00:01:47;;;;;;;14.50;6.73;;;;;;;4.06;83.12;100376.41;124082;1098;104296;-82
2024/03/19 00:04:18;;;;;;;16.03;6.60;;;;;;;4.07;83.51;100374.73;124313;1099;104380;-82
2024/03/19 00:06:50;;;;;;;17.87;7.13;;;;;;;4.08;84.11;100372.22;124075;1099;104352;-81
2024/03/19 00:09:22;;;;;;;16.20;7.03;;;;;;;4.09;84.29;100375.70;124215;1099;104261;-81
2024/03/19 00:11:53;;;;;;;15.17;6.80;;;;;;;4.04;83.72;100377.14;124122;1099;104239;-80
2024/03/19 00:14:25;;;;;;;14.50;6.65;;;;;;;4.03;83.83;100373.63;124100;1099;104250;-81
2024/03/19 00:16:56;;;;;;;14.90;6.60;;;;;;;4.05;83.58;100384.11;124121;1099;104236;-81
2024/03/19 00:19:27;;;;;;;16.43;7.30;;;;;;;4.03;84.14;100371.03;124088;1099;104370;-81
2024/03/19 00:21:58;;;;;;;14.87;6.30;;;;;;;4.00;84.19;100373.44;124014;1099;104380;-80
2024/03/19 00:24:30;;;;;;;16.43;7.20;;;;;;;3.96;83.81;100376.68;123957;1098;104220;-79
2024/03/19 00:27:01;;;;;;;17.07;6.53;;;;;;;3.93;83.59;100372.19;124131;1098;104345;-82
2024/03/19 00:29:32;;;;;;;17.53;7.80;;;;;;;3.92;84.30;100378.17;124119;1099;104316;-80
2024/03/19 00:32:04;;;;;;;14.53;6.77;;;;;;;3.90;83.79;100374.59;124047;1098;104370;-81
2024/03/19 00:34:36;;;;;;;17.17;7.37;;;;;;;3.90;84.57;100376.31;124007;1099;104278;-81
2024/03/19 00:37:08;;;;;;;17.77;7.40;;;;;;;3.87;83.70;100373.53;124050;1099;104268;-81
2024/03/19 00:39:39;;;;;;;17.40;7.87;;;;;;;3.87;84.34;100371.81;124155;1099;104299;-81
2024/03/19 00:42:11;;;;;;;16.77;7.33;;;;;;;3.88;84.18;100371.02;124064;1099;104361;-81
2024/03/19 00:44:42;;;;;;;18.35;7.75;;;;;;;3.89;84.57;100369.31;124032;1099;104290;-80
2024/03/19 00:47:14;;;;;;;16.97;7.43;;;;;;;3.85;84.94;100364.73;124081;1099;104197;-82
2024/03/19 00:49:48;;;;;;;16.60;6.73;;;;;;;3.85;84.42;100368.25;124193;1099;104312;-83
2024/03/19 00:52:20;;;;;;;18.07;7.63;;;;;;;3.86;84.93;100363.94;124012;1098;104290;-81
2024/03/19 00:54:51;;;;;;;18.87;7.97;;;;;;;3.85;84.97;100357.86;124053;1099;104319;-81
2024/03/19 00:57:22;;;;;;;18.87;7.70;;;;;;;3.86;84.95;100359.63;124127;1099;104358;-83
2024/03/19 00:59:54;;;;;;;16.63;7.37;;;;;;;3.88;84.38;100360.64;124133;1099;104280;-81
2024/03/19 01:02:26;;;;;;;17.80;8.07;;;;;;;3.86;85.18;100367.42;123952;1099;104242;-80
2024/03/19 01:04:58;;;;;;;17.85;8.00;;;;;;;3.85;84.74;100359.53;124011;1099;104312;-82
2024/03/19 01:07:30;;;;;;;17.27;7.80;;;;;;;3.82;84.54;100346.38;124092;1099;104171;-82
2024/03/19 01:10:01;;;;;;;19.23;8.57;;;;;;;3.83;85.21;100358.56;124003;1099;104226;-82
2024/03/19 01:12:33;;;;;;;18.90;8.30;;;;;;;3.81;85.44;100350.68;124004;1099;104283;-82
2024/03/19 01:15:05;;;;;;;19.03;8.37;;;;;;;3.81;85.36;100349.80;123956;1099;104369;-82
2024/03/19 01:17:39;;;;;;;18.70;8.43;;;;;;;3.82;85.11;100343.78;124237;1099;104204;-82
2024/03/19 01:20:11;;;;;;;21.93;8.50;;;;;;;3.81;84.79;100349.80;124015;1099;104241;-80
2024/03/19 01:22:43;;;;;;;19.00;8.00;;;;;;;3.79;84.93;100344.52;123782;1099;104242;-83
2024/03/19 01:25:15;;;;;;;19.33;8.50;;;;;;;3.84;85.67;100345.67;124305;1099;104287;-81
2024/03/19 01:27:49;;;;;;;18.90;8.43;;;;;;;3.83;85.45;100345.58;123776;1099;104309;-81
2024/03/19 01:30:21;;;;;;;18.87;8.43;;;;;;;3.83;85.77;100346.47;124178;1099;104181;-81
2024/03/19 01:32:52;;;;;;;18.63;8.70;;;;;;;3.81;85.05;100347.20;123861;1099;104319;-81
2024/03/19 01:35:23;;;;;;;19.90;8.45;;;;;;;3.79;86.28;100344.52;123885;1099;104281;-81
2024/03/19 01:37:56;;;;;;;19.27;8.73;;;;;;;3.75;85.53;100345.12;124157;1099;104242;-82
2024/03/19 01:40:27;;;;;;;18.23;8.50;;;;;;;3.72;85.73;100339.74;124042;1098;104268;-82
2024/03/19 01:42:59;;;;;;;18.70;9.00;;;;;;;3.70;86.17;100341.36;124061;1099;104272;-81
2024/03/19 01:45:30;;;;;;;16.13;7.67;;;;;;;3.67;86.71;100335.98;124109;1099;104271;-81
2024/03/19 01:48:02;;;;;;;18.63;8.43;;;;;;;3.67;86.22;100341.17;124124;1099;104685;-81
2024/03/19 01:50:35;;;;;;;19.93;8.97;;;;;;;3.66;86.54;100331.59;124144;1097;104270;-81
2024/03/19 01:53:06;;;;;;;19.53;8.70;;;;;;;3.65;86.48;100335.00;123991;1099;104756;-82
2024/03/19 01:55:37;;;;;;;18.97;8.47;;;;;;;3.63;86.82;100324.53;124216;1099;104178;-82
2024/03/19 01:58:09;;;;;;;18.23;8.03;;;;;;;3.64;86.68;100325.42;124081;1099;104360;-82
2024/03/19 02:00:44;;;;;;;17.53;8.17;;;;;;;3.64;86.66;100330.61;123966;1098;104258;-82
2024/03/19 02:03:16;;;;;;;19.25;8.30;;;;;;;3.64;86.55;100333.20;124190;1099;104270;-81
2024/03/19 02:05:49;;;;;;;18.13;8.97;;;;;;;3.63;86.64;100333.99;124057;1099;104316;-82
2024/03/19 02:08:20;;;;;;;18.30;8.80;;;;;;;3.63;86.90;100337.50;124171;1099;104316;-82
2024/03/19 02:10:52;;;;;;;17.70;7.83;;;;;;;3.67;87.47;100329.08;124141;1099;104279;-82
2024/03/19 02:13:24;;;;;;;17.93;8.33;;;;;;;3.69;86.81;100327.47;123941;1098;104695;-81
2024/03/19 02:15:55;;;;;;;18.60;8.35;;;;;;;3.65;86.54;100330.70;124115;1099;104342;-82
2024/03/19 02:18:26;;;;;;;16.77;7.93;;;;;;;3.60;87.18;100338.20;124017;1099;104268;-81
2024/03/19 02:20:58;;;;;;;17.37;8.03;;;;;;;3.54;86.92;100336.95;124021;1099;104267;-82
2024/03/19 02:23:29;;;;;;;16.83;7.90;;;;;;;3.47;87.04;100337.36;124007;1099;104348;-81
2024/03/19 02:26:01;;;;;;;17.53;7.90;;;;;;;3.45;87.54;100334.67;123869;1099;104319;-81
2024/03/19 02:28:33;;;;;;;16.57;7.77;;;;;;;3.41;87.33;100328.41;123980;1099;104242;-81
2024/03/19 02:31:04;;;;;;;15.00;7.13;;;;;;;3.38;87.96;100332.48;123979;1099;104268;-80
2024/03/19 02:33:36;;;;;;;15.77;7.83;;;;;;;3.33;87.33;100349.47;123962;1099;104344;-81
2024/03/19 02:36:08;;;;;;;16.53;7.70;;;;;;;3.27;87.94;100346.50;124104;1099;104354;-80
2024/03/19 02:38:39;;;;;;;14.57;7.00;;;;;;;3.23;87.46;100354.09;124196;1099;104325;-81
2024/03/19 02:41:10;;;;;;;16.20;7.63;;;;;;;3.21;87.26;100349.59;124207;1099;104249;-82
2024/03/19 02:43:42;;;;;;;14.95;7.25;;;;;;;3.21;87.58;100342.73;124043;1099;104347;-82
2024/03/19 02:46:13;;;;;;;16.83;7.27;;;;;;;3.22;87.53;100346.20;124049;1099;104302;-81
2024/03/19 02:48:44;;;;;;;15.87;7.37;;;;;;;3.21;88.13;100347.00;123844;1099;104393;-81
2024/03/19 02:51:16;;;;;;;16.03;7.40;;;;;;;3.23;87.65;100356.68;124005;1099;104219;-81
2024/03/19 02:53:47;;;;;;;12.93;6.67;;;;;;;3.25;88.36;100348.99;124051;1099;104197;-82
2024/03/19 02:56:18;;;;;;;14.13;7.00;;;;;;;3.22;87.86;100357.47;124074;1099;104357;-80
2024/03/19 02:58:50;;;;;;;14.80;6.30;;;;;;;3.19;87.59;100351.20;123987;1099;104347;-82
2024/03/19 03:01:21;;;;;;;12.27;5.77;;;;;;;3.18;87.85;100352.91;124020;1099;104371;-82
2024/03/19 03:03:52;;;;;;;14.10;6.23;;;;;;;3.17;87.29;100356.30;124165;1099;104238;-80
2024/03/19 03:06:23;;;;;;;15.65;6.00;;;;;;;3.15;87.69;100357.91;124098;1099;104863;-82
2024/03/19 03:08:55;;;;;;;13.13;6.50;;;;;;;3.14;87.34;100358.69;124123;1099;104748;-81
2024/03/19 03:11:26;;;;;;;11.97;6.20;;;;;;;3.16;87.52;100357.08;123993;1099;104265;-81
2024/03/19 03:13:57;;;;;;;16.07;7.50;;;;;;;3.14;87.42;100366.47;124009;1099;104249;-80
2024/03/19 03:16:29;;;;;;;15.10;6.80;;;;;;;3.11;87.63;100360.20;124056;1099;104727;-81
2024/03/19 03:19:00;;;;;;;14.90;6.90;;;;;;;3.10;87.32;100361.91;123658;1099;104347;-81
2024/03/19 03:21:34;;;;;;;13.10;6.60;;;;;;;3.10;87.46;100367.09;123759;1099;104325;-80
2024/03/19 03:24:06;;;;;;;13.80;6.70;;;;;;;3.07;88.16;100359.13;124058;1099;104243;-82
2024/03/19 03:26:38;;;;;;;14.03;6.70;;;;;;;3.12;88.07;100365.48;124087;1099;104392;-81
2024/03/19 03:29:09;;;;;;;14.77;6.67;;;;;;;3.12;88.21;100370.67;124060;1099;104268;-81
2024/03/19 03:31:41;;;;;;;16.63;7.17;;;;;;;3.09;87.56;100364.41;124008;1098;104248;-80
2024/03/19 03:34:12;;;;;;;14.83;6.83;;;;;;;3.08;87.82;100363.48;124107;1099;104267;-81
2024/03/19 03:36:43;;;;;;;14.57;6.97;;;;;;;3.10;88.20;100364.50;124105;1099;104239;-81
2024/03/19 03:39:17;;;;;;;14.40;6.60;;;;;;;3.09;88.32;100367.89;124018;1098;104297;-80
2024/03/19 03:41:49;;;;;;;15.95;7.55;;;;;;;3.08;89.10;100368.67;124004;1099;104418;-81
2024/03/19 03:44:20;;;;;;;15.87;7.30;;;;;;;3.08;88.13;100365.20;124142;1099;104300;-81
2024/03/19 03:46:51;;;;;;;18.80;8.13;;;;;;;3.12;88.59;100369.79;123932;1099;104245;-81
2024/03/19 03:49:23;;;;;;;14.80;7.60;;;;;;;3.12;88.84;100372.38;124153;1099;104431;-82
2024/03/19 03:51:54;;;;;;;15.87;7.93;;;;;;;3.14;88.18;100373.36;124100;1099;104297;-85
2024/03/19 03:54:25;;;;;;;16.87;7.83;;;;;;;3.15;88.89;100370.87;124004;1099;104294;-81
2024/03/19 03:56:57;;;;;;;16.60;8.00;;;;;;;3.18;89.13;100375.33;124039;1099;104288;-81
2024/03/19 03:59:28;;;;;;;17.80;7.60;;;;;;;3.15;88.54;100372.58;124078;1099;104284;-80
2024/03/19 04:02:00;;;;;;;16.77;8.10;;;;;;;3.13;88.87;100371.56;124140;1099;104235;-82
2024/03/19 04:04:31;;;;;;;16.37;8.23;;;;;;;3.12;88.65;100374.97;124121;1099;104267;-81
2024/03/19 04:07:02;;;;;;;16.67;8.13;;;;;;;3.06;89.35;100383.25;124104;1099;104268;-80
2024/03/19 04:09:34;;;;;;;17.43;8.83;;;;;;;3.02;88.82;100389.94;124143;1099;104347;-81
2024/03/19 04:12:06;;;;;;;19.30;9.35;;;;;;;2.98;88.64;100387.05;124010;1099;104280;-80
2024/03/19 04:14:37;;;;;;;17.40;8.57;;;;;;;2.94;88.91;100390.23;124163;1099;104239;-81
2024/03/19 04:17:12;;;;;;;16.60;8.43;;;;;;;2.91;89.22;100387.45;124089;1099;104365;-81
2024/03/19 04:19:43;;;;;;;16.93;8.30;;;;;;;2.91;89.31;100387.45;124120;1099;104347;-80
2024/03/19 04:22:14;;;;;;;17.65;8.85;;;;;;;2.91;89.41;100384.86;124143;1099;104366;-80
2024/03/19 04:24:46;;;;;;;18.43;8.50;;;;;;;2.90;89.25;100393.41;124030;1099;104461;-81
2024/03/19 04:27:17;;;;;;;17.80;9.13;;;;;;;2.92;89.74;100384.06;124061;1099;104242;-79
2024/03/19 04:29:50;;;;;;;18.03;8.33;;;;;;;2.95;90.43;100381.67;124099;1098;104348;-80
2024/03/19 04:32:22;;;;;;;18.15;9.10;;;;;;;2.91;89.57;100384.86;124157;1099;104219;-80
2024/03/19 04:34:53;;;;;;;18.10;8.67;;;;;;;2.90;90.19;100383.97;124016;1099;104210;-82
2024/03/19 04:37:24;;;;;;;18.27;8.63;;;;;;;2.91;89.46;100390.92;124117;1099;104255;-82
2024/03/19 04:39:56;;;;;;;18.17;9.03;;;;;;;2.93;90.10;100393.61;124115;1099;104195;-79
2024/03/19 04:42:28;;;;;;;18.63;9.50;;;;;;;2.94;89.69;100395.42;124117;1099;104243;-80
2024/03/19 04:45:00;;;;;;;18.60;9.27;;;;;;;2.93;90.27;100393.61;124106;1099;104517;-80
2024/03/19 04:47:31;;;;;;;18.30;9.25;;;;;;;2.94;89.48;100392.83;124154;1099;104310;-82
2024/03/19 04:50:03;;;;;;;18.50;8.93;;;;;;;2.98;89.66;100392.23;124090;1099;104271;-83
2024/03/19 04:52:34;;;;;;;18.73;9.13;;;;;;;3.04;90.13;100382.27;124030;1099;104328;-82
2024/03/19 04:55:06;;;;;;;17.30;8.67;;;;;;;3.04;90.77;100382.27;124185;1098;104207;-81
2024/03/19 04:57:38;;;;;;;17.80;8.73;;;;;;;3.06;90.09;100381.54;124469;1099;104648;-81
2024/03/19 05:00:17;;;;;;;17.23;8.40;;;;;;;3.09;90.00;100385.15;124173;1099;104242;-81
2024/03/19 05:02:49;;;;;;;17.10;8.30;;;;;;;3.15;90.08;100399.39;124176;1099;104730;-82
2024/03/19 05:05:20;;;;;;;18.50;9.10;;;;;;;3.17;90.31;100394.30;124182;1099;104252;-81
2024/03/19 05:07:52;;;;;;;18.30;8.93;;;;;;;3.20;90.78;100394.50;124375;1099;104722;-82
2024/03/19 05:10:23;;;;;;;21.63;9.07;;;;;;;3.22;90.51;100393.77;124441;1099;105681;-81
2024/03/19 05:12:54;;;;;;;19.53;8.97;;;;;;;3.20;89.66;100400.57;124122;1099;104251;-82
2024/03/19 05:15:26;;;;;;;19.60;9.03;;;;;;;3.20;90.65;100421.31;124510;1099;104354;-83
2024/03/19 05:17:58;;;;;;;19.00;9.20;;;;;;;3.17;90.16;100428.89;124233;1099;104248;-82
2024/03/19 05:20:29;;;;;;;18.77;9.57;;;;;;;3.17;90.80;100423.71;124387;1099;104350;-80
2024/03/19 05:23:00;;;;;;;20.13;9.27;;;;;;;3.20;90.73;100421.31;124484;1099;104354;-81
2024/03/19 05:25:32;;;;;;;19.40;8.80;;;;;;;3.23;90.70;100425.81;124246;1099;104181;-81
2024/03/19 05:28:03;;;;;;;19.20;9.80;;;;;;;3.22;90.53;100417.11;124164;1098;104258;-82
2024/03/19 05:30:35;;;;;;;19.63;9.27;;;;;;;3.28;91.08;100419.20;124511;1099;104253;-82
2024/03/19 05:33:07;;;;;;;20.60;9.80;;;;;;;3.39;91.39;100418.18;124288;1099;104210;-80
2024/03/19 05:35:38;;;;;;;19.57;9.27;;;;;;;3.48;91.24;100417.88;124299;1099;104313;-82
2024/03/19 05:38:09;;;;;;;19.57;9.53;;;;;;;3.55;90.37;100416.55;124518;1099;104354;-84
2024/03/19 05:40:41;;;;;;;22.70;10.83;;;;;;;3.60;90.83;100429.02;124322;1099;105103;-80
2024/03/19 05:43:12;;;;;;;19.60;9.83;;;;;;;3.62;90.03;100425.64;124441;1098;104178;-81
2024/03/19 05:45:43;;;;;;;20.90;10.20;;;;;;;3.63;90.86;100427.41;124491;1099;104240;-81
2024/03/19 05:48:15;;;;;;;19.00;8.87;;;;;;;3.66;91.15;100435.38;124561;1099;104267;-80
2024/03/19 05:50:46;;;;;;;16.53;8.27;;;;;;;3.66;91.61;100433.70;124741;1099;104395;-79
2024/03/19 05:53:19;;;;;;;16.83;8.33;;;;;;;3.68;90.51;100433.80;124728;1098;104267;-80
2024/03/19 05:55:50;;;;;;;16.60;8.17;;;;;;;3.69;90.33;100438.17;124646;1099;104242;-78
2024/03/19 05:58:21;;;;;;;15.97;8.00;;;;;;;3.71;90.61;100444.34;124535;1099;104238;-79
2024/03/19 06:00:54;;;;;;;14.60;7.40;;;;;;;3.68;90.78;100450.27;124457;1099;104271;-80
2024/03/19 06:03:27;;;;;;;16.03;8.13;;;;;;;3.66;90.38;100457.06;124618;1099;104440;-76
2024/03/19 06:05:59;;;;;;;17.07;7.87;;;;;;;3.68;90.16;100454.56;125227;1099;104214;-77
2024/03/19 06:08:30;;;;;;;16.60;8.10;;;;;;;3.66;90.76;100458.74;125035;1099;104216;-79
2024/03/19 06:11:02;;;;;;;14.93;7.30;;;;;;;3.66;90.09;100456.14;124782;1099;104290;-79
2024/03/19 06:13:36;;;;;;;16.80;8.30;;;;;;;3.59;90.67;100455.76;125038;1099;104242;-79
2024/03/19 06:16:07;;;;;;;;;;;;;;;3.52;90.32;100463.98;125042;1099;104173;-78
2024/03/19 06:18:38;;;;;;;18.17;8.10;;;;;;;3.49;90.45;100462.86;125092;1099;104226;-79
2024/03/19 06:21:09;;;;;;;16.30;8.07;;;;;;;3.45;89.99;100468.68;125016;1098;102751;-77
2024/03/19 06:23:41;;;;;;;16.33;7.67;;;;;;;3.50;90.24;100478.53;124751;1098;118209;-78
2024/03/19 06:26:12;;;;;;;16.07;7.57;;;;;;;3.52;90.45;100470.84;124759;1099;102087;-79
2024/03/19 06:28:44;;;;;;;14.93;7.27;;;;;;;3.58;90.13;100481.61;125187;1098;104242;-77
2024/03/19 06:31:16;;;;;;;14.10;7.27;;;;;;;3.59;90.72;100478.23;125240;1099;104226;-80
2024/03/19 06:33:48;;;;;;;15.93;7.23;;;;;;;3.62;91.18;100482.72;124761;1099;103810;-79
2024/03/19 06:36:19;;;;;;;15.07;7.50;;;;;;;3.58;90.56;100481.61;125092;1098;104159;-79
2024/03/19 06:38:51;;;;;;;15.57;7.60;;;;;;;3.60;90.92;100480.92;125096;1099;104318;-78
2024/03/19 06:41:31;;;;;;;16.17;7.70;;;;;;;3.64;90.42;100465.55;124713;1099;104208;-80
2024/03/19 06:44:05;;;;;;;15.33;7.17;;;;;;;3.58;91.06;100451.39;125461;1099;104287;-79
2024/03/19 06:46:36;;;;;;;14.33;7.57;;;;;;;3.74;90.97;100470.48;125210;1099;104169;-81
2024/03/19 06:49:11;;;;;;;15.80;7.93;;;;;;;3.82;91.40;100466.70;125605;1098;102435;-80
2024/03/19 06:51:43;;;;;;;15.67;7.67;;;;;;;3.85;91.05;100465.97;125544;1099;104383;-80
2024/03/19 06:54:14;;;;;;;16.57;7.97;;;;;;;3.92;90.27;100468.15;125649;1099;104216;-82
2024/03/19 06:56:46;;;;;;;17.73;8.60;;;;;;;3.95;90.70;100474.42;125290;1099;104242;-82
2024/03/19 06:59:19;;;;;;;18.67;7.87;;;;;;;3.95;90.85;100479.61;125139;1099;104165;-82
2024/03/19 07:01:50;;;;;;;16.23;8.20;;;;;;;3.93;90.35;100482.94;125468;1098;104361;-80
2024/03/19 07:04:27;;;;;;;16.93;8.67;;;;;;;3.90;90.75;100486.23;125098;1099;104342;-78
2024/03/19 07:07:02;;;;;;;18.10;8.57;;;;;;;3.91;91.27;100493.23;126625;1098;102427;-81
2024/03/19 07:09:34;;;;;;;16.87;7.90;;;;;;;3.94;90.96;100487.30;125446;1099;104347;-81
2024/03/19 07:12:10;;;;;;;17.93;8.87;;;;;;;4.06;90.72;100485.47;124943;1099;104226;-80
2024/03/19 07:14:42;;;;;;;19.40;8.97;;;;;;;4.25;90.46;100486.59;125458;1098;117760;-80
2024/03/19 07:17:14;;;;;;;16.87;8.17;;;;;;;4.41;90.28;100486.73;124752;1099;104260;-81
2024/03/19 07:19:46;;;;;;;17.83;8.93;;;;;;;4.58;90.84;100479.94;125284;1099;104269;-80
2024/03/19 07:22:19;;;;;;;18.33;8.97;;;;;;;4.78;91.11;100483.69;125061;1099;104734;-80
2024/03/19 07:24:51;;;;;;;17.83;8.90;;;;;;;4.97;90.99;100480.48;125298;1099;104865;-78
2024/03/19 07:27:25;;;;;;;17.07;9.33;;;;;;;5.14;91.54;100478.84;125228;1099;102629;-79
2024/03/19 07:30:02;;;;;;;17.77;8.60;;;;;;;5.24;90.73;100477.66;125345;1098;103128;-77
2024/03/19 07:32:37;;;;;;;16.67;8.33;;;;;;;5.30;90.93;100484.89;125090;1099;104291;-76
2024/03/19 07:35:10;;;;;;;15.65;7.90;;;;;;;5.34;90.67;100481.66;125187;1098;112735;-77
2024/03/19 07:37:41;;;;;;;16.13;8.37;;;;;;;5.40;90.80;100476.80;124897;1099;104268;-77
2024/03/19 07:40:20;;;;;;;18.03;9.07;;;;;;;5.50;90.71;100478.20;125091;1099;104274;-78
2024/03/19 07:42:56;;;;;;;16.83;8.53;;;;;;;5.56;90.77;100468.13;125250;1098;103471;-78
2024/03/19 07:45:27;;;;;;;17.37;8.33;;;;;;;5.61;90.81;100474.52;124944;1099;104268;-78
2024/03/19 07:48:04;;;;;;;16.40;8.20;;;;;;;5.62;89.96;100470.19;124901;1099;104255;-77
2024/03/19 07:50:38;;;;;;;15.70;7.83;;;;;;;5.63;90.12;100472.88;124950;1099;103981;-79
2024/03/19 07:53:10;;;;;;;17.60;9.03;;;;;;;5.72;91.49;100462.97;125025;1099;102536;-77
2024/03/19 07:55:44;;;;;;;17.97;8.97;;;;;;;5.79;90.77;100464.19;125113;1097;108347;-77
2024/03/19 07:58:17;;;;;;;15.93;8.25;;;;;;;5.85;90.22;100464.52;125799;1098;102720;-78
2024/03/19 08:00:48;;;;;;;16.73;8.63;;;;;;;6.00;90.09;100464.50;124729;1099;103609;-76
2024/03/19 08:03:20;;;;;;;16.63;8.80;;;;;;;6.15;89.69;100467.00;125028;1099;103298;-78
2024/03/19 08:06:01;;;;;;;17.82;8.35;;;;;;;6.21;90.00;100462.11;124971;1099;102596;-76
2024/03/19 08:08:33;;;;;;;14.83;8.20;;;;;;;6.27;90.05;100466.77;124476;1099;104358;-77
2024/03/19 08:11:06;;;;;;;16.70;8.20;;;;;;;6.26;89.83;100470.17;125254;1098;102687;-77
2024/03/19 08:13:38;;;;;;;17.00;8.30;;;;;;;6.27;89.95;100459.83;124651;1099;104281;-78
2024/03/19 08:16:10;;;;;;;17.07;8.17;;;;;;;6.34;88.59;100467.97;124944;1098;104345;-76
2024/03/19 08:18:48;;;;;;;16.80;7.80;;;;;;;6.41;88.92;100460.55;125040;1099;104207;-82
2024/03/19 08:21:21;;;;;;;14.67;8.00;;;;;;;6.41;88.82;100460.55;125161;1099;104134;-76
2024/03/19 08:23:55;;;;;;;19.33;8.37;;;;;;;6.42;88.98;100457.14;124862;1099;104162;-76
2024/03/19 08:26:27;;;;;;;16.53;8.20;;;;;;;6.39;89.01;100462.20;124794;1099;112869;-76
2024/03/19 08:29:01;;;;;;;16.47;8.20;;;;;;;6.39;88.13;100462.20;124364;1099;104239;-76
2024/03/19 08:31:34;;;;;;;16.83;8.37;;;;;;;6.37;88.37;100457.70;124658;1099;103002;-76
2024/03/19 08:34:08;;;;;;;15.40;7.60;;;;;;;6.37;88.61;100466.41;124505;1099;104181;-77
2024/03/19 08:36:40;;;;;;;15.93;8.10;;;;;;;6.28;87.72;100466.84;124508;1099;104337;-77
2024/03/19 08:39:14;;;;;;;18.53;7.57;;;;;;;6.30;87.70;100461.72;124732;1099;104131;-77
2024/03/19 08:41:46;;;;;;;;;;;;;;;6.32;86.36;100462.68;124802;1099;104220;-78
2024/03/19 08:44:24;;;;;;;16.47;7.40;;;;;;;6.31;86.61;100468.73;125047;1099;104223;-78
2024/03/19 08:46:56;;;;;;;;;;;;;;;6.27;85.72;100466.77;124838;1099;106951;-77
2024/03/19 08:49:30;;;;;;;15.63;7.33;;;;;;;6.27;86.71;100471.98;124721;1099;102278;-78
2024/03/19 08:52:07;;;;;;;15.20;7.07;;;;;;;6.27;86.32;100475.47;124805;1099;102806;-78
2024/03/19 08:54:42;;;;;;;14.00;6.53;;;;;;;6.22;85.27;100469.12;124710;1099;101975;-76
2024/03/19 08:57:17;;;;;;;13.63;6.30;;;;;;;6.23;85.60;100470.94;124597;1099;118632;-77
2024/03/19 08:59:51;;;;;;;17.83;8.03;;;;;;;6.23;86.20;100472.62;124757;1099;104236;-77
2024/03/19 09:02:38;;;;;;;15.80;7.03;;;;;;;6.20;85.62;100472.45;124808;1099;102504;-77
2024/03/19 09:05:14;;;;;;;12.57;6.13;;;;;;;6.17;84.56;100469.69;124716;1099;104420;-77
2024/03/19 09:07:59;;;;;;;13.30;6.40;;;;;;;6.13;85.24;100473.85;124951;1099;104168;-76
2024/03/19 09:10:39;;;;;;;15.68;6.90;;;;;;;6.15;84.55;100476.54;124831;1099;104246;-77
2024/03/19 09:13:11;;;;;;;12.03;6.30;;;;;;;6.37;84.28;100471.63;124812;1099;103241;-78
2024/03/19 09:15:46;;;;;;;13.60;6.80;;;;;;;6.66;84.87;100467.91;124770;1099;104203;-77
2024/03/19 09:18:19;;;;;;;15.67;7.27;;;;;;;7.10;86.33;100463.12;124721;1099;104197;-77
2024/03/19 09:20:54;;;;;;;13.50;6.40;;;;;;;7.33;85.09;100465.97;124766;1099;104235;-78
2024/03/19 09:23:25;;;;;;;15.30;6.90;;;;;;;7.45;84.72;100450.89;124445;1099;104297;-77
2024/03/19 09:25:58;;;;;;;14.40;6.40;;;;;;;7.52;85.15;100458.17;124560;1099;104191;-77
2024/03/19 09:28:32;;;;;;;13.03;6.30;;;;;;;7.63;84.47;100452.57;124672;1099;102687;-78
2024/03/19 09:31:09;;;;;;;13.37;6.80;;;;;;;7.96;84.27;100444.48;124326;1099;104357;-77
2024/03/19 09:33:44;;;;;;;12.13;6.07;;;;;;;8.32;84.98;100439.11;124763;1099;104165;-78
2024/03/19 09:36:15;;;;;;;10.37;5.50;;;;;;;8.64;83.84;100441.42;124895;1099;103009;-77
2024/03/19 09:38:48;;;;;;;8.97;5.03;;;;;;;8.66;82.83;100443.22;124912;1099;104248;-76
2024/03/19 09:41:25;;;;;;;11.97;5.57;;;;;;;8.51;81.32;100446.06;124752;1099;104172;-77
2024/03/19 09:44:01;;;;;;;12.23;5.47;;;;;;;8.53;82.82;100450.53;124613;1099;104169;-77
2024/03/19 09:46:37;;;;;;;10.67;5.10;;;;;;;8.57;81.75;100436.78;124748;1099;104248;-77
2024/03/19 09:49:17;;;;;;;10.08;4.85;;;;;;;8.67;80.30;100435.44;125035;1099;103010;-77
2024/03/19 09:51:50;;;;;;;12.50;5.40;;;;;;;8.56;79.97;100436.70;124774;1099;104363;-77
2024/03/19 09:54:23;;;;;;;8.50;4.90;;;;;;;8.36;79.96;100441.05;124887;1099;102511;-77
2024/03/19 09:56:55;;;;;;;10.47;5.50;;;;;;;8.13;80.07;100440.91;124866;1099;104169;-77
2024/03/19 09:59:30;;;;;;;7.70;4.63;;;;;;;7.94;78.90;100433.09;124802;1099;104808;-77
2024/03/19 10:02:02;;;;;;;7.87;4.50;;;;;;;7.83;80.15;100435.20;125126;1099;104204;-77
2024/03/19 10:04:33;;;;;;;7.03;4.40;;;;;;;7.68;78.88;100438.91;124879;1098;104233;-78
2024/03/19 10:07:07;;;;;;;9.03;4.60;;;;;;;7.56;78.09;100420.95;125072;1099;102905;-77
2024/03/19 10:09:39;;;;;;;10.43;4.70;;;;;;;7.69;77.50;100431.97;126562;1099;102672;-78
2024/03/19 10:12:24;;;;;;;12.30;5.77;;;;;;;7.91;78.21;100423.37;125572;1099;104295;-78
2024/03/19 10:14:57;;;;;;;11.00;4.87;;;;;;;8.24;78.29;100423.09;124778;1099;104329;-77
2024/03/19 10:17:28;;;;;;;9.93;4.97;;;;;;;8.49;79.16;100425.07;124582;1099;102573;-77
2024/03/19 10:20:00;;;;;;;8.17;4.70;;;;;;;8.47;78.15;100424.13;125128;1099;103881;-77
2024/03/19 10:22:32;;;;;;;10.00;4.77;;;;;;;8.38;77.17;100415.84;124194;1099;104251;-76
2024/03/19 10:25:07;;;;;;;9.57;4.87;;;;;;;8.27;75.70;100413.68;123771;1099;103454;-75
2024/03/19 10:27:41;;;;;;;8.40;4.70;;;;;;;8.15;75.63;100418.37;123543;1098;104323;-77
2024/03/19 10:30:17;;;;;;;8.13;4.60;;;;;;;8.09;74.94;100418.98;123824;1099;104248;-78
2024/03/19 10:32:50;;;;;;;10.57;4.70;;;;;;;8.05;75.04;100416.16;124499;1099;104306;-76
2024/03/19 10:35:26;;;;;;;9.27;4.80;;;;;;;7.97;74.15;100415.81;124664;1099;104249;-76
2024/03/19 10:37:57;;;;;;;11.77;4.90;;;;;;;7.94;74.81;100417.41;124746;1099;104203;-76
2024/03/19 10:40:33;;;;;;;8.90;5.00;;;;;;;7.89;74.49;100412.86;124834;1099;104360;-76
2024/03/19 10:43:06;;;;;;;8.93;4.30;;;;;;;7.95;75.09;100413.95;124561;1098;104246;-76
2024/03/19 10:45:41;;;;;;;10.40;4.22;;;;;;;7.97;73.99;100409.71;124794;1098;104389;-76
2024/03/19 10:48:15;;;;;;;7.93;4.17;;;;;;;8.05;74.11;100400.48;125229;1099;104181;-77
2024/03/19 10:50:52;;;;;;;10.03;4.30;;;;;;;8.27;73.68;100400.61;124923;1099;104242;-77
2024/03/19 10:53:27;;;;;;;6.67;3.90;;;;;;;8.55;74.41;100400.91;126311;1098;101986;-78
2024/03/19 10:56:04;;;;;;;8.03;3.90;;;;;;;8.84;74.58;100396.02;126650;1098;101937;-77
2024/03/19 10:58:40;;;;;;;9.00;4.80;;;;;;;9.13;74.94;100392.84;126768;1098;101810;-78
2024/03/19 11:01:29;;;;;;;5.80;4.03;;;;;;;9.39;74.62;100394.69;126661;1099;102308;-77
2024/03/19 11:04:05;;;;;;;7.67;4.27;;;;;;;9.57;74.79;100384.92;126966;1099;102564;-77
2024/03/19 11:06:55;;;;;;;7.60;3.80;;;;;;;9.76;73.76;100380.38;126091;1098;104236;-77
2024/03/19 11:09:29;;;;;;;7.57;3.90;;;;;;;9.89;73.54;100386.13;125141;1099;102743;-78
2024/03/19 11:12:05;;;;;;;6.73;3.80;;;;;;;10.02;73.84;100383.91;124722;1099;104693;-76
2024/03/19 11:14:40;;;;;;;7.97;4.10;;;;;;;10.01;73.03;100382.16;125081;1099;104163;-77
2024/03/19 11:17:19;;;;;;;9.47;3.97;;;;;;;10.03;72.21;100373.48;125339;1099;104228;-77
2024/03/19 11:19:57;;;;;;;9.23;3.80;;;;;;;9.95;69.69;100381.94;125122;1098;102713;-77
2024/03/19 11:22:29;;;;;;;8.73;3.70;;;;;;;9.85;71.20;100378.09;124001;1099;103386;-77
2024/03/19 11:25:02;;;;;;;5.63;3.27;;;;;;;9.80;70.34;100374.39;124893;1098;102781;-77
2024/03/19 11:27:37;;;;;;;6.40;3.53;;;;;;;9.70;69.16;100378.41;125114;1098;102835;-77
2024/03/19 11:30:13;;;;;;;6.17;3.57;;;;;;;9.58;68.42;100375.33;125022;1099;102883;-78
2024/03/19 11:32:48;;;;;;;4.80;3.40;;;;;;;9.33;67.10;100383.16;125129;1098;103147;-76
2024/03/19 11:35:24;;;;;;;5.23;3.53;;;;;;;9.10;67.92;100373.48;124657;1099;104217;-77
2024/03/19 11:37:59;;;;;;;6.37;3.47;;;;;;;8.90;68.07;100372.72;124143;1099;103125;-78